sensor_id;sensor_type;location;lat;lon;timestamp;P1;durP1;ratioP1;P2;durP2;ratioP2
46983;SDS011;34732;52.112;9.366;2023-02-26T09:59:31;9.25;;;1.60;;
46983;SDS011;34732;52.112;9.366;2023-02-26T10:14:01;16.13;;;1.10;;
46983;SDS011;34732;52.112;9.366;2023-02-26T10:17:37;2.60;;;0.90;;
46983;SDS011;34732;52.112;9.366;2023-02-26T10:21:10;4.38;;;0.90;;
46983;SDS011;34732;52.112;9.366;2023-02-26T10:24:40;5.15;;;0.73;;
46983;SDS011;34732;52.112;9.366;2023-02-26T10:35:22;2.67;;;0.70;;
46983;SDS011;34732;52.112;9.366;2023-02-26T10:38:53;4.90;;;0.80;;
46983;SDS011;34732;52.112;9.366;2023-02-26T10:42:27;2.20;;;0.70;;
46983;SDS011;34732;52.112;9.366;2023-02-26T10:50:00;3.63;;;0.90;;
46983;SDS011;34732;52.112;9.366;2023-02-26T10:53:29;1.85;;;0.70;;
46983;SDS011;34732;52.112;9.366;2023-02-26T10:56:51;1.95;;;0.52;;
46983;SDS011;34732;52.112;9.366;2023-02-26T11:00:18;3.53;;;0.63;;
46983;SDS011;34732;52.112;9.366;2023-02-26T11:03:49;2.38;;;0.60;;
46983;SDS011;34732;52.112;9.366;2023-02-26T11:07:14;1.80;;;0.52;;
46983;SDS011;34732;52.112;9.366;2023-02-26T11:10:44;3.53;;;0.70;;
46983;SDS011;34732;52.112;9.366;2023-02-26T11:14:11;3.13;;;0.70;;
46983;SDS011;34732;52.112;9.366;2023-02-26T11:17:37;5.60;;;0.80;;
46983;SDS011;34732;52.112;9.366;2023-02-26T11:21:03;3.85;;;1.42;;
46983;SDS011;34732;52.112;9.366;2023-02-26T11:24:33;5.40;;;0.90;;
46983;SDS011;34732;52.112;9.366;2023-02-26T11:28:00;9.57;;;1.08;;
46983;SDS011;34732;52.112;9.366;2023-02-26T11:31:26;3.63;;;0.60;;
46983;SDS011;34732;52.112;9.366;2023-02-26T11:34:53;6.38;;;0.88;;
46983;SDS011;34732;52.112;9.366;2023-02-26T11:38:21;4.22;;;0.90;;
46983;SDS011;34732;52.112;9.366;2023-02-26T11:41:52;3.35;;;0.50;;
46983;SDS011;34732;52.112;9.366;2023-02-26T11:45:16;5.28;;;0.55;;
46983;SDS011;34732;52.112;9.366;2023-02-26T11:48:41;2.80;;;0.70;;
46983;SDS011;34732;52.112;9.366;2023-02-26T11:55:38;3.20;;;0.73;;
46983;SDS011;34732;52.112;9.366;2023-02-26T11:59:18;3.13;;;0.55;;
46983;SDS011;34732;52.112;9.366;2023-02-26T12:02:43;6.90;;;0.63;;
46983;SDS011;34732;52.112;9.366;2023-02-26T12:06:06;4.72;;;0.60;;
46983;SDS011;34732;52.112;9.366;2023-02-26T12:09:39;6.65;;;0.70;;
46983;SDS011;34732;52.112;9.366;2023-02-26T12:13:07;2.28;;;0.68;;
46983;SDS011;34732;52.112;9.366;2023-02-26T12:42:47;3.38;;;0.63;;
46983;SDS011;34732;52.112;9.366;2023-02-26T13:01:40;3.83;;;0.60;;
46983;SDS011;34732;52.112;9.366;2023-02-26T13:05:33;1.92;;;0.57;;
46983;SDS011;34732;52.112;9.366;2023-02-26T13:12:53;1.67;;;0.50;;
46983;SDS011;34732;52.112;9.366;2023-02-26T13:16:28;1.15;;;0.35;;
46983;SDS011;34732;52.112;9.366;2023-02-26T13:20:29;1.02;;;0.60;;
46983;SDS011;34732;52.112;9.366;2023-02-26T13:23:54;1.85;;;0.40;;
46983;SDS011;34732;52.112;9.366;2023-02-26T13:27:28;1.40;;;0.57;;
46983;SDS011;34732;52.112;9.366;2023-02-26T13:30:57;2.28;;;0.60;;
46983;SDS011;34732;52.112;9.366;2023-02-26T13:34:26;0.93;;;0.35;;
46983;SDS011;34732;52.112;9.366;2023-02-26T13:37:57;1.67;;;0.73;;
46983;SDS011;34732;52.112;9.366;2023-02-26T13:41:24;1.00;;;0.30;;
46983;SDS011;34732;52.112;9.366;2023-02-26T13:52:32;0.82;;;0.30;;
46983;SDS011;34732;52.112;9.366;2023-02-26T13:56:16;2.25;;;0.50;;
46983;SDS011;34732;52.112;9.366;2023-02-26T13:59:45;0.85;;;0.52;;
46983;SDS011;34732;52.112;9.366;2023-02-26T14:06:58;4.07;;;0.75;;
46983;SDS011;34732;52.112;9.366;2023-02-26T14:14:05;2.75;;;1.10;;
46983;SDS011;34732;52.112;9.366;2023-02-26T14:17:58;3.40;;;1.25;;
46983;SDS011;34732;52.112;9.366;2023-02-26T14:35:38;14.73;;;4.97;;
46983;SDS011;34732;52.112;9.366;2023-02-26T14:39:04;10.35;;;4.60;;
46983;SDS011;34732;52.112;9.366;2023-02-26T14:46:18;17.42;;;7.40;;
46983;SDS011;34732;52.112;9.366;2023-02-26T14:49:47;18.88;;;7.95;;
46983;SDS011;34732;52.112;9.366;2023-02-26T15:04:20;21.40;;;8.55;;
46983;SDS011;34732;52.112;9.366;2023-02-26T15:08:12;17.83;;;8.25;;
46983;SDS011;34732;52.112;9.366;2023-02-26T15:19:20;17.23;;;8.27;;
46983;SDS011;34732;52.112;9.366;2023-02-26T15:27:03;25.17;;;9.73;;
46983;SDS011;34732;52.112;9.366;2023-02-26T15:30:30;23.63;;;9.77;;
46983;SDS011;34732;52.112;9.366;2023-02-26T15:33:57;21.48;;;10.38;;
46983;SDS011;34732;52.112;9.366;2023-02-26T15:37:19;24.65;;;9.80;;
46983;SDS011;34732;52.112;9.366;2023-02-26T15:40:45;21.45;;;10.00;;
46983;SDS011;34732;52.112;9.366;2023-02-26T15:44:15;21.20;;;10.57;;
46983;SDS011;34732;52.112;9.366;2023-02-26T15:47:48;18.27;;;9.07;;
46983;SDS011;34732;52.112;9.366;2023-02-26T15:51:15;19.85;;;9.68;;
46983;SDS011;34732;52.112;9.366;2023-02-26T15:54:42;20.05;;;10.07;;
46983;SDS011;34732;52.112;9.366;2023-02-26T15:58:14;22.27;;;10.32;;
46983;SDS011;34732;52.112;9.366;2023-02-26T16:01:40;21.42;;;10.30;;
46983;SDS011;34732;52.112;9.366;2023-02-26T16:05:02;25.40;;;10.05;;
46983;SDS011;34732;52.112;9.366;2023-02-26T16:08:26;23.55;;;9.55;;
46983;SDS011;34732;52.112;9.366;2023-02-26T16:11:51;18.70;;;9.82;;
46983;SDS011;34732;52.112;9.366;2023-02-26T16:15:18;17.95;;;9.45;;
46983;SDS011;34732;52.112;9.366;2023-02-26T16:18:48;24.58;;;10.02;;
46983;SDS011;34732;52.112;9.366;2023-02-26T16:22:22;22.92;;;9.57;;
46983;SDS011;34732;52.112;9.366;2023-02-26T16:29:23;18.38;;;9.15;;
46983;SDS011;34732;52.112;9.366;2023-02-26T16:32:49;17.02;;;8.90;;
46983;SDS011;34732;52.112;9.366;2023-02-26T16:36:14;19.42;;;9.35;;
46983;SDS011;34732;52.112;9.366;2023-02-26T16:39:43;20.40;;;8.88;;
46983;SDS011;34732;52.112;9.366;2023-02-26T16:46:55;18.52;;;8.55;;
46983;SDS011;34732;52.112;9.366;2023-02-26T16:50:23;18.98;;;8.23;;
46983;SDS011;34732;52.112;9.366;2023-02-26T16:53:51;12.07;;;7.57;;
46983;SDS011;34732;52.112;9.366;2023-02-26T17:00:45;15.73;;;7.15;;
46983;SDS011;34732;52.112;9.366;2023-02-26T17:04:13;14.73;;;7.32;;
46983;SDS011;34732;52.112;9.366;2023-02-26T17:07:46;13.80;;;6.93;;
46983;SDS011;34732;52.112;9.366;2023-02-26T17:11:44;15.93;;;6.97;;
46983;SDS011;34732;52.112;9.366;2023-02-26T17:15:10;17.45;;;7.05;;
46983;SDS011;34732;52.112;9.366;2023-02-26T17:19:21;15.20;;;6.65;;
46983;SDS011;34732;52.112;9.366;2023-02-26T17:22:45;15.68;;;6.88;;
46983;SDS011;34732;52.112;9.366;2023-02-26T17:26:11;13.65;;;6.65;;
46983;SDS011;34732;52.112;9.366;2023-02-26T17:29:39;12.75;;;6.30;;
46983;SDS011;34732;52.112;9.366;2023-02-26T17:33:08;11.20;;;6.28;;
46983;SDS011;34732;52.112;9.366;2023-02-26T17:36:33;13.18;;;5.63;;
46983;SDS011;34732;52.112;9.366;2023-02-26T17:39:57;12.15;;;7.05;;
46983;SDS011;34732;52.112;9.366;2023-02-26T17:43:25;11.55;;;6.35;;
46983;SDS011;34732;52.112;9.366;2023-02-26T17:46:51;13.25;;;6.18;;
46983;SDS011;34732;52.112;9.366;2023-02-26T17:57:20;9.38;;;5.18;;
46983;SDS011;34732;52.112;9.366;2023-02-26T18:00:45;8.80;;;5.30;;
46983;SDS011;34732;52.112;9.366;2023-02-26T18:04:09;9.80;;;5.25;;
46983;SDS011;34732;52.112;9.366;2023-02-26T18:07:32;11.48;;;5.47;;
46983;SDS011;34732;52.112;9.366;2023-02-26T18:10:57;10.52;;;5.13;;
46983;SDS011;34732;52.112;9.366;2023-02-26T18:14:23;11.90;;;5.05;;
46983;SDS011;34732;52.112;9.366;2023-02-26T18:17:47;11.13;;;4.95;;
46983;SDS011;34732;52.112;9.366;2023-02-26T18:21:13;9.07;;;5.15;;
46983;SDS011;34732;52.112;9.366;2023-02-26T18:24:36;8.82;;;4.22;;
46983;SDS011;34732;52.112;9.366;2023-02-26T18:28:02;10.13;;;4.93;;
46983;SDS011;34732;52.112;9.366;2023-02-26T18:31:31;7.32;;;4.10;;
46983;SDS011;34732;52.112;9.366;2023-02-26T18:35:09;9.27;;;4.13;;
46983;SDS011;34732;52.112;9.366;2023-02-26T18:38:33;10.20;;;4.45;;
46983;SDS011;34732;52.112;9.366;2023-02-26T18:42:01;10.18;;;4.13;;
46983;SDS011;34732;52.112;9.366;2023-02-26T18:45:29;9.45;;;3.85;;
46983;SDS011;34732;52.112;9.366;2023-02-26T18:48:53;8.63;;;3.88;;
46983;SDS011;34732;52.112;9.366;2023-02-26T18:52:21;9.98;;;3.70;;
46983;SDS011;34732;52.112;9.366;2023-02-26T18:55:45;6.05;;;3.80;;
46983;SDS011;34732;52.112;9.366;2023-02-26T18:59:08;10.25;;;3.28;;
46983;SDS011;34732;52.112;9.366;2023-02-26T19:02:34;4.18;;;2.78;;
46983;SDS011;34732;52.112;9.366;2023-02-26T19:06:00;9.80;;;3.25;;
46983;SDS011;34732;52.112;9.366;2023-02-26T19:09:27;5.80;;;3.08;;
46983;SDS011;34732;52.112;9.366;2023-02-26T19:12:51;7.30;;;3.22;;
46983;SDS011;34732;52.112;9.366;2023-02-26T19:16:12;8.98;;;3.53;;
46983;SDS011;34732;52.112;9.366;2023-02-26T19:19:36;8.25;;;2.92;;
46983;SDS011;34732;52.112;9.366;2023-02-26T19:23:05;6.15;;;2.83;;
46983;SDS011;34732;52.112;9.366;2023-02-26T19:26:28;6.47;;;2.95;;
46983;SDS011;34732;52.112;9.366;2023-02-26T19:33:13;6.18;;;2.60;;
46983;SDS011;34732;52.112;9.366;2023-02-26T19:36:35;4.75;;;2.05;;
46983;SDS011;34732;52.112;9.366;2023-02-26T19:40:02;5.35;;;2.70;;
46983;SDS011;34732;52.112;9.366;2023-02-26T19:43:29;5.68;;;2.22;;
46983;SDS011;34732;52.112;9.366;2023-02-26T19:46:56;7.25;;;2.22;;
46983;SDS011;34732;52.112;9.366;2023-02-26T19:50:24;9.63;;;2.00;;
46983;SDS011;34732;52.112;9.366;2023-02-26T19:53:53;6.28;;;2.20;;
46983;SDS011;34732;52.112;9.366;2023-02-26T19:57:16;7.30;;;2.47;;
46983;SDS011;34732;52.112;9.366;2023-02-26T20:00:40;3.47;;;2.15;;
46983;SDS011;34732;52.112;9.366;2023-02-26T20:04:06;6.95;;;2.50;;
46983;SDS011;34732;52.112;9.366;2023-02-26T20:07:31;3.33;;;2.33;;
46983;SDS011;34732;52.112;9.366;2023-02-26T20:10:57;5.82;;;2.67;;
46983;SDS011;34732;52.112;9.366;2023-02-26T20:14:24;7.43;;;2.70;;
46983;SDS011;34732;52.112;9.366;2023-02-26T20:17:50;5.07;;;2.40;;
46983;SDS011;34732;52.112;9.366;2023-02-26T20:21:16;7.00;;;2.70;;
46983;SDS011;34732;52.112;9.366;2023-02-26T20:24:39;4.25;;;1.50;;
46983;SDS011;34732;52.112;9.366;2023-02-26T20:28:05;5.00;;;1.90;;
46983;SDS011;34732;52.112;9.366;2023-02-26T20:31:29;3.03;;;1.02;;
46983;SDS011;34732;52.112;9.366;2023-02-26T20:34:53;4.38;;;1.50;;
46983;SDS011;34732;52.112;9.366;2023-02-26T20:38:21;2.35;;;1.20;;
46983;SDS011;34732;52.112;9.366;2023-02-26T20:41:47;3.75;;;1.40;;
